sensor_id;sensor_type;location;lat;lon;timestamp;P1;durP1;ratioP1;P2;durP2;ratioP2
313;SDS011;143;51.634;7.112;2023-01-26T00:01:24;261.93;;;88.87;;
313;SDS011;143;51.634;7.112;2023-01-26T00:03:54;300.27;;;98.78;;
313;SDS011;143;51.634;7.112;2023-01-26T00:06:21;258.13;;;91.43;;
313;SDS011;143;51.634;7.112;2023-01-26T00:08:48;264.67;;;87.43;;
313;SDS011;143;51.634;7.112;2023-01-26T00:11:23;285.02;;;95.40;;
313;SDS011;143;51.634;7.112;2023-01-26T00:13:51;275.70;;;97.18;;
313;SDS011;143;51.634;7.112;2023-01-26T00:16:17;285.92;;;90.43;;
313;SDS011;143;51.634;7.112;2023-01-26T00:18:44;284.25;;;97.70;;
313;SDS011;143;51.634;7.112;2023-01-26T00:21:14;297.52;;;102.80;;
313;SDS011;143;51.634;7.112;2023-01-26T00:23:41;289.67;;;98.47;;
313;SDS011;143;51.634;7.112;2023-01-26T00:26:07;297.77;;;95.57;;
313;SDS011;143;51.634;7.112;2023-01-26T00:28:34;312.30;;;108.47;;
313;SDS011;143;51.634;7.112;2023-01-26T00:31:03;290.90;;;98.97;;
313;SDS011;143;51.634;7.112;2023-01-26T00:33:30;303.48;;;104.28;;
313;SDS011;143;51.634;7.112;2023-01-26T00:35:56;321.23;;;107.53;;
313;SDS011;143;51.634;7.112;2023-01-26T00:38:22;306.97;;;98.70;;
313;SDS011;143;51.634;7.112;2023-01-26T00:40:47;311.97;;;101.60;;
313;SDS011;143;51.634;7.112;2023-01-26T00:43:13;311.73;;;104.10;;
313;SDS011;143;51.634;7.112;2023-01-26T00:45:39;285.37;;;104.13;;
313;SDS011;143;51.634;7.112;2023-01-26T00:48:05;310.63;;;102.87;;
313;SDS011;143;51.634;7.112;2023-01-26T00:50:31;292.25;;;102.55;;
313;SDS011;143;51.634;7.112;2023-01-26T00:52:57;308.08;;;109.05;;
313;SDS011;143;51.634;7.112;2023-01-26T00:55:23;290.03;;;106.40;;
313;SDS011;143;51.634;7.112;2023-01-26T00:57:56;292.98;;;102.53;;
313;SDS011;143;51.634;7.112;2023-01-26T01:00:22;279.75;;;99.03;;
313;SDS011;143;51.634;7.112;2023-01-26T01:02:48;281.77;;;99.03;;
313;SDS011;143;51.634;7.112;2023-01-26T01:05:14;281.57;;;94.43;;
313;SDS011;143;51.634;7.112;2023-01-26T01:07:39;267.50;;;92.97;;
313;SDS011;143;51.634;7.112;2023-01-26T01:10:05;273.17;;;93.80;;
313;SDS011;143;51.634;7.112;2023-01-26T01:12:32;293.00;;;95.03;;
313;SDS011;143;51.634;7.112;2023-01-26T01:14:58;273.80;;;95.80;;
313;SDS011;143;51.634;7.112;2023-01-26T01:17:23;270.13;;;95.17;;
313;SDS011;143;51.634;7.112;2023-01-26T01:19:49;272.17;;;92.67;;
313;SDS011;143;51.634;7.112;2023-01-26T01:22:15;259.90;;;92.97;;
313;SDS011;143;51.634;7.112;2023-01-26T01:24:41;233.20;;;87.30;;
313;SDS011;143;51.634;7.112;2023-01-26T01:27:06;252.57;;;90.27;;
313;SDS011;143;51.634;7.112;2023-01-26T01:29:32;266.73;;;88.57;;
313;SDS011;143;51.634;7.112;2023-01-26T01:31:58;254.50;;;90.53;;
313;SDS011;143;51.634;7.112;2023-01-26T01:34:24;259.87;;;89.83;;
313;SDS011;143;51.634;7.112;2023-01-26T01:36:49;243.13;;;82.67;;
313;SDS011;143;51.634;7.112;2023-01-26T01:39:16;254.35;;;91.28;;
313;SDS011;143;51.634;7.112;2023-01-26T01:41:41;255.73;;;83.27;;
313;SDS011;143;51.634;7.112;2023-01-26T01:44:18;223.17;;;76.70;;
313;SDS011;143;51.634;7.112;2023-01-26T01:49:21;267.48;;;87.22;;
313;SDS011;143;51.634;7.112;2023-01-26T01:51:55;253.50;;;79.70;;
313;SDS011;143;51.634;7.112;2023-01-26T01:54:25;219.02;;;74.70;;
313;SDS011;143;51.634;7.112;2023-01-26T01:57:06;252.73;;;84.38;;
313;SDS011;143;51.634;7.112;2023-01-26T01:59:39;229.25;;;79.60;;
313;SDS011;143;51.634;7.112;2023-01-26T02:02:08;218.27;;;74.70;;
313;SDS011;143;51.634;7.112;2023-01-26T02:04:35;240.73;;;77.65;;
313;SDS011;143;51.634;7.112;2023-01-26T02:07:01;234.55;;;81.38;;
313;SDS011;143;51.634;7.112;2023-01-26T02:09:29;223.70;;;78.45;;
313;SDS011;143;51.634;7.112;2023-01-26T02:12:17;233.90;;;74.53;;
313;SDS011;143;51.634;7.112;2023-01-26T02:14:45;221.32;;;73.22;;
313;SDS011;143;51.634;7.112;2023-01-26T02:17:11;237.87;;;78.67;;
313;SDS011;143;51.634;7.112;2023-01-26T02:22:27;242.23;;;78.13;;
313;SDS011;143;51.634;7.112;2023-01-26T02:25:36;227.93;;;74.40;;
313;SDS011;143;51.634;7.112;2023-01-26T02:28:07;233.85;;;77.22;;
313;SDS011;143;51.634;7.112;2023-01-26T02:30:32;214.07;;;69.20;;
313;SDS011;143;51.634;7.112;2023-01-26T02:32:58;209.13;;;70.87;;
313;SDS011;143;51.634;7.112;2023-01-26T02:35:24;228.13;;;79.50;;
313;SDS011;143;51.634;7.112;2023-01-26T02:37:50;224.68;;;69.00;;
313;SDS011;143;51.634;7.112;2023-01-26T02:42:47;173.60;;;59.40;;
313;SDS011;143;51.634;7.112;2023-01-26T02:45:13;197.00;;;70.07;;
313;SDS011;143;51.634;7.112;2023-01-26T02:47:40;189.27;;;61.72;;
313;SDS011;143;51.634;7.112;2023-01-26T02:50:09;206.27;;;67.20;;
313;SDS011;143;51.634;7.112;2023-01-26T02:52:35;186.15;;;60.55;;
313;SDS011;143;51.634;7.112;2023-01-26T02:55:01;189.53;;;63.63;;
313;SDS011;143;51.634;7.112;2023-01-26T02:57:46;212.10;;;68.95;;
313;SDS011;143;51.634;7.112;2023-01-26T03:00:13;201.60;;;65.38;;
313;SDS011;143;51.634;7.112;2023-01-26T03:02:42;205.65;;;63.13;;
313;SDS011;143;51.634;7.112;2023-01-26T03:05:10;178.88;;;63.08;;
313;SDS011;143;51.634;7.112;2023-01-26T03:07:35;184.33;;;62.97;;
313;SDS011;143;51.634;7.112;2023-01-26T03:10:02;185.40;;;61.13;;
313;SDS011;143;51.634;7.112;2023-01-26T03:12:28;198.85;;;63.83;;
313;SDS011;143;51.634;7.112;2023-01-26T03:14:54;196.73;;;63.67;;
313;SDS011;143;51.634;7.112;2023-01-26T03:17:38;175.32;;;59.72;;
313;SDS011;143;51.634;7.112;2023-01-26T03:20:04;157.63;;;57.37;;
313;SDS011;143;51.634;7.112;2023-01-26T03:22:49;161.20;;;55.63;;
313;SDS011;143;51.634;7.112;2023-01-26T03:25:36;174.68;;;60.33;;
313;SDS011;143;51.634;7.112;2023-01-26T03:28:20;164.38;;;57.53;;
313;SDS011;143;51.634;7.112;2023-01-26T03:30:47;152.30;;;55.07;;
313;SDS011;143;51.634;7.112;2023-01-26T03:33:14;162.05;;;55.00;;
313;SDS011;143;51.634;7.112;2023-01-26T03:35:40;145.25;;;51.70;;
313;SDS011;143;51.634;7.112;2023-01-26T03:38:06;151.47;;;54.90;;
313;SDS011;143;51.634;7.112;2023-01-26T03:40:31;180.73;;;55.87;;
313;SDS011;143;51.634;7.112;2023-01-26T03:43:16;176.70;;;55.42;;
313;SDS011;143;51.634;7.112;2023-01-26T03:46:03;159.55;;;54.78;;
313;SDS011;143;51.634;7.112;2023-01-26T03:48:48;162.90;;;56.10;;
313;SDS011;143;51.634;7.112;2023-01-26T03:51:32;166.25;;;54.42;;
313;SDS011;143;51.634;7.112;2023-01-26T03:54:16;178.95;;;58.10;;
313;SDS011;143;51.634;7.112;2023-01-26T03:57:00;181.00;;;55.85;;
313;SDS011;143;51.634;7.112;2023-01-26T03:59:26;179.97;;;57.70;;
313;SDS011;143;51.634;7.112;2023-01-26T04:02:05;184.35;;;58.55;;
313;SDS011;143;51.634;7.112;2023-01-26T04:04:53;189.73;;;58.15;;
313;SDS011;143;51.634;7.112;2023-01-26T04:07:38;168.40;;;54.95;;
313;SDS011;143;51.634;7.112;2023-01-26T04:10:23;150.35;;;55.40;;
313;SDS011;143;51.634;7.112;2023-01-26T04:12:49;176.80;;;61.03;;
313;SDS011;143;51.634;7.112;2023-01-26T04:15:34;201.00;;;60.15;;
313;SDS011;143;51.634;7.112;2023-01-26T04:18:20;158.77;;;57.10;;
313;SDS011;143;51.634;7.112;2023-01-26T04:21:04;157.10;;;55.15;;
313;SDS011;143;51.634;7.112;2023-01-26T04:23:51;152.85;;;56.80;;
313;SDS011;143;51.634;7.112;2023-01-26T04:26:20;152.00;;;56.10;;
313;SDS011;143;51.634;7.112;2023-01-26T04:28:46;184.38;;;58.97;;
313;SDS011;143;51.634;7.112;2023-01-26T04:31:12;153.43;;;57.10;;
313;SDS011;143;51.634;7.112;2023-01-26T04:33:37;149.07;;;56.83;;
313;SDS011;143;51.634;7.112;2023-01-26T04:36:04;161.40;;;57.60;;
313;SDS011;143;51.634;7.112;2023-01-26T04:38:30;145.30;;;55.85;;
313;SDS011;143;51.634;7.112;2023-01-26T04:40:56;136.60;;;50.40;;
313;SDS011;143;51.634;7.112;2023-01-26T04:43:22;151.23;;;53.90;;
313;SDS011;143;51.634;7.112;2023-01-26T04:46:02;165.17;;;56.03;;
313;SDS011;143;51.634;7.112;2023-01-26T04:48:29;164.32;;;57.72;;
313;SDS011;143;51.634;7.112;2023-01-26T04:50:56;136.75;;;49.83;;
313;SDS011;143;51.634;7.112;2023-01-26T04:53:23;145.32;;;50.10;;
313;SDS011;143;51.634;7.112;2023-01-26T04:55:50;140.95;;;49.60;;
313;SDS011;143;51.634;7.112;2023-01-26T04:58:16;153.75;;;51.05;;
313;SDS011;143;51.634;7.112;2023-01-26T05:00:42;153.73;;;49.30;;
313;SDS011;143;51.634;7.112;2023-01-26T05:03:08;142.50;;;47.83;;
313;SDS011;143;51.634;7.112;2023-01-26T05:05:37;135.23;;;50.00;;
313;SDS011;143;51.634;7.112;2023-01-26T05:08:04;144.95;;;49.90;;
313;SDS011;143;51.634;7.112;2023-01-26T05:10:30;114.00;;;46.03;;
313;SDS011;143;51.634;7.112;2023-01-26T05:12:56;139.15;;;49.40;;
313;SDS011;143;51.634;7.112;2023-01-26T05:15:22;128.67;;;47.23;;
313;SDS011;143;51.634;7.112;2023-01-26T05:17:47;126.60;;;44.37;;
313;SDS011;143;51.634;7.112;2023-01-26T05:20:13;110.33;;;43.70;;
313;SDS011;143;51.634;7.112;2023-01-26T05:22:39;128.90;;;44.77;;
313;SDS011;143;51.634;7.112;2023-01-26T05:25:05;113.83;;;42.27;;
313;SDS011;143;51.634;7.112;2023-01-26T05:27:31;120.40;;;42.37;;
313;SDS011;143;51.634;7.112;2023-01-26T05:29:56;111.37;;;44.57;;
313;SDS011;143;51.634;7.112;2023-01-26T05:32:25;113.70;;;41.38;;
313;SDS011;143;51.634;7.112;2023-01-26T05:34:52;96.57;;;38.97;;
313;SDS011;143;51.634;7.112;2023-01-26T05:37:17;103.30;;;40.33;;
313;SDS011;143;51.634;7.112;2023-01-26T05:39:43;109.93;;;40.07;;
313;SDS011;143;51.634;7.112;2023-01-26T05:42:12;108.30;;;39.80;;
313;SDS011;143;51.634;7.112;2023-01-26T05:44:38;101.82;;;37.85;;
313;SDS011;143;51.634;7.112;2023-01-26T05:47:04;85.03;;;35.40;;
313;SDS011;143;51.634;7.112;2023-01-26T05:49:30;87.38;;;35.75;;
313;SDS011;143;51.634;7.112;2023-01-26T05:51:56;81.07;;;32.50;;
313;SDS011;143;51.634;7.112;2023-01-26T05:54:21;91.40;;;35.07;;
313;SDS011;143;51.634;7.112;2023-01-26T05:56:47;89.63;;;34.80;;
313;SDS011;143;51.634;7.112;2023-01-26T05:59:13;85.75;;;31.42;;
313;SDS011;143;51.634;7.112;2023-01-26T06:01:39;81.43;;;33.83;;
313;SDS011;143;51.634;7.112;2023-01-26T06:04:05;90.10;;;36.97;;
313;SDS011;143;51.634;7.112;2023-01-26T06:06:31;90.90;;;36.47;;
313;SDS011;143;51.634;7.112;2023-01-26T06:08:57;101.77;;;39.20;;
313;SDS011;143;51.634;7.112;2023-01-26T06:11:23;81.72;;;35.38;;
313;SDS011;143;51.634;7.112;2023-01-26T06:13:49;80.37;;;33.90;;
313;SDS011;143;51.634;7.112;2023-01-26T06:16:14;85.57;;;33.47;;
313;SDS011;143;51.634;7.112;2023-01-26T06:18:40;87.90;;;35.77;;
313;SDS011;143;51.634;7.112;2023-01-26T06:21:06;80.83;;;35.10;;
313;SDS011;143;51.634;7.112;2023-01-26T06:23:32;75.00;;;32.50;;
313;SDS011;143;51.634;7.112;2023-01-26T06:25:58;80.20;;;33.33;;
313;SDS011;143;51.634;7.112;2023-01-26T06:28:24;87.18;;;33.35;;
313;SDS011;143;51.634;7.112;2023-01-26T06:30:50;74.67;;;30.03;;
313;SDS011;143;51.634;7.112;2023-01-26T06:33:16;88.70;;;36.03;;
313;SDS011;143;51.634;7.112;2023-01-26T06:35:41;81.70;;;35.80;;
313;SDS011;143;51.634;7.112;2023-01-26T06:38:07;75.20;;;32.47;;
313;SDS011;143;51.634;7.112;2023-01-26T06:40:32;84.00;;;35.47;;
313;SDS011;143;51.634;7.112;2023-01-26T06:42:58;76.33;;;34.07;;
313;SDS011;143;51.634;7.112;2023-01-26T06:45:24;76.73;;;33.07;;
313;SDS011;143;51.634;7.112;2023-01-26T06:47:49;82.40;;;35.00;;
313;SDS011;143;51.634;7.112;2023-01-26T06:50:17;81.43;;;35.67;;
313;SDS011;143;51.634;7.112;2023-01-26T06:52:53;74.45;;;31.20;;
313;SDS011;143;51.634;7.112;2023-01-26T06:55:28;73.60;;;32.03;;
313;SDS011;143;51.634;7.112;2023-01-26T06:57:59;79.03;;;33.38;;
313;SDS011;143;51.634;7.112;2023-01-26T07:00:24;70.97;;;30.97;;
313;SDS011;143;51.634;7.112;2023-01-26T07:02:50;71.47;;;29.97;;
313;SDS011;143;51.634;7.112;2023-01-26T07:05:16;70.07;;;31.73;;
313;SDS011;143;51.634;7.112;2023-01-26T07:07:42;68.47;;;29.80;;
313;SDS011;143;51.634;7.112;2023-01-26T07:10:08;70.20;;;30.13;;
313;SDS011;143;51.634;7.112;2023-01-26T07:12:40;67.07;;;29.23;;
313;SDS011;143;51.634;7.112;2023-01-26T07:15:08;74.95;;;33.08;;
313;SDS011;143;51.634;7.112;2023-01-26T07:17:35;72.05;;;29.27;;
313;SDS011;143;51.634;7.112;2023-01-26T07:20:04;78.05;;;32.78;;
313;SDS011;143;51.634;7.112;2023-01-26T07:22:31;71.28;;;29.15;;
313;SDS011;143;51.634;7.112;2023-01-26T07:24:56;67.07;;;30.17;;
313;SDS011;143;51.634;7.112;2023-01-26T07:27:22;74.10;;;29.90;;
313;SDS011;143;51.634;7.112;2023-01-26T07:29:48;67.30;;;28.37;;
313;SDS011;143;51.634;7.112;2023-01-26T07:32:15;65.53;;;29.20;;
313;SDS011;143;51.634;7.112;2023-01-26T07:34:41;84.18;;;33.55;;
313;SDS011;143;51.634;7.112;2023-01-26T07:37:07;72.57;;;30.87;;
313;SDS011;143;51.634;7.112;2023-01-26T07:39:32;75.10;;;30.43;;
313;SDS011;143;51.634;7.112;2023-01-26T07:41:58;73.93;;;30.03;;
313;SDS011;143;51.634;7.112;2023-01-26T07:44:24;79.50;;;31.20;;
313;SDS011;143;51.634;7.112;2023-01-26T07:46:49;73.00;;;31.20;;
313;SDS011;143;51.634;7.112;2023-01-26T07:49:15;77.17;;;31.27;;
313;SDS011;143;51.634;7.112;2023-01-26T07:51:41;69.73;;;29.33;;
313;SDS011;143;51.634;7.112;2023-01-26T07:54:06;74.10;;;30.70;;
313;SDS011;143;51.634;7.112;2023-01-26T07:56:36;69.53;;;30.67;;
313;SDS011;143;51.634;7.112;2023-01-26T07:59:02;63.97;;;28.05;;
313;SDS011;143;51.634;7.112;2023-01-26T08:01:28;70.80;;;28.70;;
313;SDS011;143;51.634;7.112;2023-01-26T08:03:54;73.07;;;30.47;;
313;SDS011;143;51.634;7.112;2023-01-26T08:06:20;73.20;;;29.70;;
313;SDS011;143;51.634;7.112;2023-01-26T08:08:46;70.07;;;29.55;;
313;SDS011;143;51.634;7.112;2023-01-26T08:11:19;67.13;;;27.95;;
313;SDS011;143;51.634;7.112;2023-01-26T08:13:47;80.63;;;32.30;;
313;SDS011;143;51.634;7.112;2023-01-26T08:16:13;77.30;;;31.47;;
313;SDS011;143;51.634;7.112;2023-01-26T08:18:43;67.20;;;27.97;;
313;SDS011;143;51.634;7.112;2023-01-26T08:21:10;79.53;;;31.83;;
313;SDS011;143;51.634;7.112;2023-01-26T08:23:37;72.28;;;28.55;;
313;SDS011;143;51.634;7.112;2023-01-26T08:26:03;77.27;;;29.23;;
313;SDS011;143;51.634;7.112;2023-01-26T08:28:30;81.75;;;32.40;;
313;SDS011;143;51.634;7.112;2023-01-26T08:31:02;70.72;;;28.60;;
313;SDS011;143;51.634;7.112;2023-01-26T08:33:39;80.55;;;31.50;;
313;SDS011;143;51.634;7.112;2023-01-26T08:36:07;78.22;;;31.48;;
313;SDS011;143;51.634;7.112;2023-01-26T08:38:36;71.18;;;27.40;;
313;SDS011;143;51.634;7.112;2023-01-26T08:41:02;72.70;;;29.33;;
313;SDS011;143;51.634;7.112;2023-01-26T08:43:28;72.50;;;29.27;;
313;SDS011;143;51.634;7.112;2023-01-26T08:45:54;73.60;;;27.95;;
313;SDS011;143;51.634;7.112;2023-01-26T08:48:20;63.10;;;25.67;;
313;SDS011;143;51.634;7.112;2023-01-26T08:50:46;64.33;;;25.50;;
313;SDS011;143;51.634;7.112;2023-01-26T08:53:12;78.20;;;28.73;;
313;SDS011;143;51.634;7.112;2023-01-26T08:55:39;63.95;;;28.02;;
313;SDS011;143;51.634;7.112;2023-01-26T08:58:04;68.80;;;26.57;;
313;SDS011;143;51.634;7.112;2023-01-26T09:00:30;58.67;;;24.80;;
313;SDS011;143;51.634;7.112;2023-01-26T09:02:59;67.27;;;26.80;;
313;SDS011;143;51.634;7.112;2023-01-26T09:05:26;55.25;;;24.63;;
313;SDS011;143;51.634;7.112;2023-01-26T09:07:52;63.75;;;24.50;;
313;SDS011;143;51.634;7.112;2023-01-26T09:10:18;52.07;;;21.50;;
313;SDS011;143;51.634;7.112;2023-01-26T09:12:44;53.33;;;20.90;;
313;SDS011;143;51.634;7.112;2023-01-26T09:15:09;47.83;;;20.67;;
313;SDS011;143;51.634;7.112;2023-01-26T09:17:35;53.70;;;21.57;;
313;SDS011;143;51.634;7.112;2023-01-26T09:20:02;49.33;;;21.40;;
313;SDS011;143;51.634;7.112;2023-01-26T09:22:29;43.85;;;20.02;;
313;SDS011;143;51.634;7.112;2023-01-26T09:24:55;50.80;;;21.20;;
313;SDS011;143;51.634;7.112;2023-01-26T09:27:21;51.40;;;21.20;;
313;SDS011;143;51.634;7.112;2023-01-26T09:29:47;52.43;;;21.33;;
313;SDS011;143;51.634;7.112;2023-01-26T09:32:13;46.07;;;19.90;;
313;SDS011;143;51.634;7.112;2023-01-26T09:34:39;46.20;;;20.02;;
313;SDS011;143;51.634;7.112;2023-01-26T09:37:05;56.20;;;20.20;;
313;SDS011;143;51.634;7.112;2023-01-26T09:39:34;49.40;;;19.15;;
313;SDS011;143;51.634;7.112;2023-01-26T09:42:03;42.73;;;19.90;;
313;SDS011;143;51.634;7.112;2023-01-26T09:45:30;43.45;;;18.45;;
313;SDS011;143;51.634;7.112;2023-01-26T09:50:47;45.03;;;19.00;;
313;SDS011;143;51.634;7.112;2023-01-26T09:53:25;42.80;;;18.30;;
313;SDS011;143;51.634;7.112;2023-01-26T09:56:05;38.97;;;16.15;;
313;SDS011;143;51.634;7.112;2023-01-26T09:58:36;38.85;;;17.00;;
313;SDS011;143;51.634;7.112;2023-01-26T10:01:04;34.72;;;15.90;;
313;SDS011;143;51.634;7.112;2023-01-26T10:06:39;38.42;;;16.13;;
313;SDS011;143;51.634;7.112;2023-01-26T10:09:13;33.97;;;15.07;;
313;SDS011;143;51.634;7.112;2023-01-26T10:11:46;30.70;;;14.50;;
313;SDS011;143;51.634;7.112;2023-01-26T10:14:23;32.33;;;14.50;;
313;SDS011;143;51.634;7.112;2023-01-26T10:17:02;32.13;;;13.63;;
313;SDS011;143;51.634;7.112;2023-01-26T10:21:59;34.83;;;15.82;;
313;SDS011;143;51.634;7.112;2023-01-26T10:24:30;28.77;;;13.18;;
313;SDS011;143;51.634;7.112;2023-01-26T10:26:58;23.17;;;12.60;;
313;SDS011;143;51.634;7.112;2023-01-26T10:29:24;33.97;;;14.45;;
313;SDS011;143;51.634;7.112;2023-01-26T10:31:49;24.30;;;12.70;;
313;SDS011;143;51.634;7.112;2023-01-26T10:34:16;26.43;;;12.20;;
313;SDS011;143;51.634;7.112;2023-01-26T10:36:47;25.65;;;11.70;;
313;SDS011;143;51.634;7.112;2023-01-26T10:39:14;25.50;;;11.57;;
313;SDS011;143;51.634;7.112;2023-01-26T10:42:00;22.70;;;11.35;;
313;SDS011;143;51.634;7.112;2023-01-26T10:44:31;21.77;;;10.20;;
313;SDS011;143;51.634;7.112;2023-01-26T10:47:05;30.15;;;12.60;;
313;SDS011;143;51.634;7.112;2023-01-26T10:49:41;27.38;;;13.40;;
313;SDS011;143;51.634;7.112;2023-01-26T10:52:17;24.70;;;11.57;;
313;SDS011;143;51.634;7.112;2023-01-26T10:54:45;26.55;;;10.73;;
313;SDS011;143;51.634;7.112;2023-01-26T10:57:13;22.65;;;11.23;;
313;SDS011;143;51.634;7.112;2023-01-26T10:59:55;27.40;;;12.60;;
313;SDS011;143;51.634;7.112;2023-01-26T11:02:29;21.92;;;9.77;;
313;SDS011;143;51.634;7.112;2023-01-26T11:07:34;29.50;;;12.40;;
313;SDS011;143;51.634;7.112;2023-01-26T11:15:49;20.92;;;10.60;;
313;SDS011;143;51.634;7.112;2023-01-26T11:26:33;24.02;;;11.55;;
313;SDS011;143;51.634;7.112;2023-01-26T11:37:37;27.38;;;12.43;;
313;SDS011;143;51.634;7.112;2023-01-26T11:59:43;19.25;;;9.95;;
313;SDS011;143;51.634;7.112;2023-01-26T12:04:48;22.70;;;10.50;;
313;SDS011;143;51.634;7.112;2023-01-26T12:07:14;19.70;;;10.03;;
313;SDS011;143;51.634;7.112;2023-01-26T12:09:47;16.55;;;8.38;;
313;SDS011;143;51.634;7.112;2023-01-26T12:12:18;18.95;;;9.88;;
313;SDS011;143;51.634;7.112;2023-01-26T12:25:57;19.13;;;8.35;;
313;SDS011;143;51.634;7.112;2023-01-26T12:28:27;16.80;;;8.43;;
313;SDS011;143;51.634;7.112;2023-01-26T12:33:28;15.23;;;8.40;;
313;SDS011;143;51.634;7.112;2023-01-26T12:38:39;16.58;;;8.23;;
313;SDS011;143;51.634;7.112;2023-01-26T12:41:16;13.55;;;7.15;;
313;SDS011;143;51.634;7.112;2023-01-26T12:46:23;16.65;;;8.10;;
313;SDS011;143;51.634;7.112;2023-01-26T12:48:54;16.95;;;7.47;;
313;SDS011;143;51.634;7.112;2023-01-26T12:51:28;15.68;;;8.10;;
313;SDS011;143;51.634;7.112;2023-01-26T12:54:05;16.05;;;8.13;;
313;SDS011;143;51.634;7.112;2023-01-26T12:56:40;15.18;;;8.32;;
313;SDS011;143;51.634;7.112;2023-01-26T13:02:43;19.15;;;9.00;;
313;SDS011;143;51.634;7.112;2023-01-26T13:04:56;16.80;;;8.43;;
313;SDS011;143;51.634;7.112;2023-01-26T13:15:25;23.30;;;10.07;;
313;SDS011;143;51.634;7.112;2023-01-26T13:17:54;25.20;;;10.40;;
313;SDS011;143;51.634;7.112;2023-01-26T13:28:45;23.15;;;11.20;;
313;SDS011;143;51.634;7.112;2023-01-26T13:31:12;30.77;;;11.95;;
313;SDS011;143;51.634;7.112;2023-01-26T13:33:52;28.33;;;11.98;;
313;SDS011;143;51.634;7.112;2023-01-26T13:36:19;32.47;;;13.43;;
313;SDS011;143;51.634;7.112;2023-01-26T13:38:50;30.23;;;13.48;;
313;SDS011;143;51.634;7.112;2023-01-26T13:41:25;31.10;;;12.43;;
313;SDS011;143;51.634;7.112;2023-01-26T13:46:37;34.55;;;14.98;;
313;SDS011;143;51.634;7.112;2023-01-26T13:49:52;31.58;;;13.00;;
313;SDS011;143;51.634;7.112;2023-01-26T13:52:11;33.92;;;13.82;;
313;SDS011;143;51.634;7.112;2023-01-26T13:54:44;38.22;;;14.93;;
313;SDS011;143;51.634;7.112;2023-01-26T13:57:12;34.63;;;13.40;;
313;SDS011;143;51.634;7.112;2023-01-26T13:59:55;41.90;;;14.98;;
313;SDS011;143;51.634;7.112;2023-01-26T14:02:32;36.92;;;14.80;;
313;SDS011;143;51.634;7.112;2023-01-26T14:04:59;43.58;;;15.60;;
313;SDS011;143;51.634;7.112;2023-01-26T14:07:27;38.38;;;14.77;;
313;SDS011;143;51.634;7.112;2023-01-26T14:10:05;47.95;;;15.80;;
313;SDS011;143;51.634;7.112;2023-01-26T14:12:39;45.63;;;16.90;;
313;SDS011;143;51.634;7.112;2023-01-26T14:17:50;44.80;;;15.77;;
313;SDS011;143;51.634;7.112;2023-01-26T14:20:25;39.78;;;15.20;;
313;SDS011;143;51.634;7.112;2023-01-26T14:25:55;43.53;;;15.75;;
313;SDS011;143;51.634;7.112;2023-01-26T14:28:24;42.53;;;16.95;;
313;SDS011;143;51.634;7.112;2023-01-26T14:30:57;41.70;;;16.75;;
313;SDS011;143;51.634;7.112;2023-01-26T14:33:26;42.83;;;17.35;;
313;SDS011;143;51.634;7.112;2023-01-26T14:35:57;65.03;;;16.90;;
313;SDS011;143;51.634;7.112;2023-01-26T14:38:24;52.90;;;18.00;;
313;SDS011;143;51.634;7.112;2023-01-26T14:40:57;43.13;;;15.32;;
313;SDS011;143;51.634;7.112;2023-01-26T14:43:25;57.83;;;19.17;;
313;SDS011;143;51.634;7.112;2023-01-26T14:45:55;49.63;;;17.65;;
313;SDS011;143;51.634;7.112;2023-01-26T14:48:32;43.10;;;17.55;;
313;SDS011;143;51.634;7.112;2023-01-26T14:51:03;49.95;;;17.10;;
313;SDS011;143;51.634;7.112;2023-01-26T14:53:32;44.55;;;16.98;;
313;SDS011;143;51.634;7.112;2023-01-26T14:55:58;48.97;;;17.23;;
313;SDS011;143;51.634;7.112;2023-01-26T14:58:24;51.63;;;20.10;;
313;SDS011;143;51.634;7.112;2023-01-26T15:00:53;49.90;;;18.88;;
313;SDS011;143;51.634;7.112;2023-01-26T15:03:24;45.35;;;16.38;;
313;SDS011;143;51.634;7.112;2023-01-26T15:06:03;51.70;;;17.75;;
313;SDS011;143;51.634;7.112;2023-01-26T15:08:29;46.15;;;16.67;;
313;SDS011;143;51.634;7.112;2023-01-26T15:10:56;43.65;;;15.85;;
313;SDS011;143;51.634;7.112;2023-01-26T15:13:45;45.50;;;16.15;;
313;SDS011;143;51.634;7.112;2023-01-26T15:16:19;52.85;;;16.45;;
313;SDS011;143;51.634;7.112;2023-01-26T15:19:02;40.83;;;15.65;;
313;SDS011;143;51.634;7.112;2023-01-26T15:21:32;50.25;;;16.58;;
313;SDS011;143;51.634;7.112;2023-01-26T15:24:03;62.50;;;17.10;;
313;SDS011;143;51.634;7.112;2023-01-26T15:26:30;50.20;;;17.58;;
313;SDS011;143;51.634;7.112;2023-01-26T15:28:59;56.45;;;17.42;;
313;SDS011;143;51.634;7.112;2023-01-26T15:31:33;57.78;;;17.98;;
313;SDS011;143;51.634;7.112;2023-01-26T15:34:00;64.57;;;18.10;;
313;SDS011;143;51.634;7.112;2023-01-26T15:39:14;61.38;;;18.30;;
313;SDS011;143;51.634;7.112;2023-01-26T15:41:44;57.33;;;17.50;;
313;SDS011;143;51.634;7.112;2023-01-26T15:44:22;52.28;;;17.50;;
313;SDS011;143;51.634;7.112;2023-01-26T15:46:48;74.97;;;18.90;;
313;SDS011;143;51.634;7.112;2023-01-26T15:49:13;47.90;;;15.87;;
313;SDS011;143;51.634;7.112;2023-01-26T15:51:42;55.20;;;18.48;;
313;SDS011;143;51.634;7.112;2023-01-26T15:54:08;54.87;;;15.77;;
313;SDS011;143;51.634;7.112;2023-01-26T15:56:35;63.95;;;16.88;;
313;SDS011;143;51.634;7.112;2023-01-26T15:59:00;68.03;;;19.07;;
313;SDS011;143;51.634;7.112;2023-01-26T16:01:26;69.83;;;18.90;;
313;SDS011;143;51.634;7.112;2023-01-26T16:03:52;47.10;;;15.47;;
313;SDS011;143;51.634;7.112;2023-01-26T16:06:18;62.27;;;18.70;;
313;SDS011;143;51.634;7.112;2023-01-26T16:08:45;39.47;;;15.45;;
313;SDS011;143;51.634;7.112;2023-01-26T16:11:11;55.67;;;16.83;;
313;SDS011;143;51.634;7.112;2023-01-26T16:13:38;52.65;;;17.30;;
313;SDS011;143;51.634;7.112;2023-01-26T16:16:04;34.80;;;13.57;;
313;SDS011;143;51.634;7.112;2023-01-26T16:18:30;47.85;;;16.30;;
313;SDS011;143;51.634;7.112;2023-01-26T16:20:56;43.40;;;15.33;;
313;SDS011;143;51.634;7.112;2023-01-26T16:23:23;55.40;;;16.10;;
313;SDS011;143;51.634;7.112;2023-01-26T16:25:50;63.80;;;17.00;;
313;SDS011;143;51.634;7.112;2023-01-26T16:28:16;47.33;;;16.65;;
313;SDS011;143;51.634;7.112;2023-01-26T16:30:43;50.25;;;16.10;;
313;SDS011;143;51.634;7.112;2023-01-26T16:33:10;55.40;;;16.70;;
313;SDS011;143;51.634;7.112;2023-01-26T16:35:38;50.70;;;17.10;;
313;SDS011;143;51.634;7.112;2023-01-26T16:38:03;38.67;;;14.30;;
313;SDS011;143;51.634;7.112;2023-01-26T16:40:31;51.67;;;16.58;;
313;SDS011;143;51.634;7.112;2023-01-26T16:42:58;50.08;;;16.40;;
313;SDS011;143;51.634;7.112;2023-01-26T16:45:25;56.35;;;18.75;;
313;SDS011;143;51.634;7.112;2023-01-26T16:47:52;47.60;;;17.43;;
313;SDS011;143;51.634;7.112;2023-01-26T16:50:20;53.53;;;17.30;;
313;SDS011;143;51.634;7.112;2023-01-26T16:52:49;47.25;;;16.67;;
313;SDS011;143;51.634;7.112;2023-01-26T16:55:16;49.03;;;16.80;;
313;SDS011;143;51.634;7.112;2023-01-26T16:57:43;55.40;;;19.58;;
313;SDS011;143;51.634;7.112;2023-01-26T17:00:13;60.88;;;16.75;;
313;SDS011;143;51.634;7.112;2023-01-26T17:02:41;56.58;;;19.27;;
313;SDS011;143;51.634;7.112;2023-01-26T17:05:14;57.85;;;18.48;;
313;SDS011;143;51.634;7.112;2023-01-26T17:07:41;66.57;;;18.05;;
313;SDS011;143;51.634;7.112;2023-01-26T17:10:08;58.67;;;18.47;;
313;SDS011;143;51.634;7.112;2023-01-26T17:12:35;58.30;;;17.10;;
313;SDS011;143;51.634;7.112;2023-01-26T17:15:01;54.37;;;15.97;;
313;SDS011;143;51.634;7.112;2023-01-26T17:17:29;56.50;;;19.30;;